Time;durP1;ratioP1;P1;durP2;ratioP2;P2;SDS_P1;SDS_P2;PMS_P1;PMS_P2;Temp;Humidity;BMP_temperature;BMP_pressure;BME280_temperature;BME280_humidity;BME280_pressure;Samples;Min_cycle;Max_cycle;Signal;HPM_P1;HPM_P2
2022/07/26 00:00:43;;;;;;;13.30;3.13;;;;;;;21.55;75.24;101391.53;4946240;28;20538;-69
2022/07/26 00:03:09;;;;;;;11.35;2.88;;;;;;;21.46;75.17;101398.38;4946820;28;20046;-68
2022/07/26 00:05:36;;;;;;;11.80;3.08;;;;;;;21.50;74.85;101396.34;4929375;28;20027;-68
2022/07/26 00:08:10;;;;;;;22.25;3.45;;;;;;;21.39;75.14;101397.09;4945523;28;20115;-67
2022/07/26 00:10:44;;;;;;;11.25;2.63;;;;;;;21.45;74.80;101405.56;4947203;28;20157;-67
2022/07/26 00:13:10;;;;;;;16.90;2.72;;;;;;;21.35;74.84;101404.53;4945134;28;20187;-68
2022/07/26 00:15:36;;;;;;;12.35;2.72;;;;;;;21.31;74.96;101409.22;4946551;28;20143;-68
2022/07/26 00:18:02;;;;;;;10.77;2.42;;;;;;;21.31;74.62;101413.75;4946319;28;20027;-67
2022/07/26 00:20:28;;;;;;;10.60;2.42;;;;;;;21.28;74.45;101412.13;4945956;28;20045;-68
2022/07/26 00:22:53;;;;;;;14.55;2.92;;;;;;;21.23;74.94;101411.59;4944878;28;20075;-68
2022/07/26 00:25:18;;;;;;;9.40;2.15;;;;;;;21.15;74.58;101409.47;4946097;28;20031;-68
2022/07/26 00:27:44;;;;;;;10.23;2.22;;;;;;;21.08;74.81;101416.22;4944908;28;20027;-67
2022/07/26 00:30:10;;;;;;;11.60;2.63;;;;;;;21.01;75.42;101407.72;4928513;29;20122;-66
2022/07/26 00:32:36;;;;;;;10.88;2.50;;;;;;;21.03;75.31;101410.31;4946766;28;20031;-67
2022/07/26 00:35:02;;;;;;;8.63;2.15;;;;;;;20.90;76.04;101419.22;4944565;28;20027;-67
2022/07/26 00:37:28;;;;;;;9.02;2.17;;;;;;;20.98;75.55;101426.69;4945599;28;20019;-68
2022/07/26 00:39:53;;;;;;;10.80;2.72;;;;;;;20.99;75.69;101423.06;4944608;28;20058;-67
2022/07/26 00:42:18;;;;;;;12.75;2.85;;;;;;;20.94;76.06;101419.84;4944899;28;20055;-66
2022/07/26 00:44:45;;;;;;;15.00;2.70;;;;;;;20.87;75.88;101423.88;4945343;28;20031;-69
2022/07/26 00:47:10;;;;;;;13.65;2.95;;;;;;;20.82;75.93;101434.91;4945592;28;20031;-66
2022/07/26 00:49:36;;;;;;;10.05;2.08;;;;;;;20.77;75.98;101434.38;4944588;28;20026;-67
2022/07/26 00:52:04;;;;;;;8.05;1.92;;;;;;;20.78;75.25;101433.41;4945857;28;20054;-68
2022/07/26 00:54:29;;;;;;;9.50;2.08;;;;;;;20.78;74.42;101430.72;4944843;28;20038;-67
2022/07/26 00:56:54;;;;;;;4.50;1.83;;;;;;;20.73;73.43;101433.72;4945256;28;20039;-68
2022/07/26 00:59:20;;;;;;;6.38;1.65;;;;;;;20.67;72.85;101435.00;4945359;28;21072;-68
2022/07/26 01:01:46;;;;;;;6.95;1.83;;;;;;;20.60;72.40;101444.41;4946131;28;20023;-68
2022/07/26 01:04:11;;;;;;;6.28;1.98;;;;;;;20.61;71.99;101443.44;4943186;23;20051;-63
2022/07/26 01:06:36;;;;;;;8.20;1.60;;;;;;;20.62;71.75;101439.78;4928129;29;20038;-62
2022/07/26 01:09:04;;;;;;;6.15;1.95;;;;;;;20.69;71.50;101446.47;4925709;29;20071;-64
2022/07/26 01:11:30;;;;;;;5.43;1.80;;;;;;;20.67;72.21;101448.38;4925457;29;20043;-63
2022/07/26 01:13:55;;;;;;;7.72;1.80;;;;;;;20.63;72.77;101451.34;4926650;29;20431;-62
2022/07/26 01:16:20;;;;;;;8.20;1.90;;;;;;;20.69;72.68;101448.28;4926489;29;20059;-62
2022/07/26 01:18:46;;;;;;;5.22;1.88;;;;;;;20.56;73.46;101440.22;4933299;29;20500;-63
2022/07/26 01:21:11;;;;;;;7.47;1.63;;;;;;;20.54;73.47;101445.69;4926530;29;20024;-63
2022/07/26 01:23:37;;;;;;;9.27;1.90;;;;;;;20.46;73.83;101437.28;4925344;29;20150;-63
2022/07/26 01:26:03;;;;;;;9.30;2.10;;;;;;;20.38;74.61;101443.13;4925582;29;20028;-63
2022/07/26 01:28:29;;;;;;;6.63;1.75;;;;;;;20.40;74.02;101446.59;4925754;29;20030;-64
2022/07/26 01:30:54;;;;;;;5.40;1.65;;;;;;;20.33;74.62;101450.63;4925809;29;20093;-62
2022/07/26 01:33:20;;;;;;;7.75;1.98;;;;;;;20.27;74.79;101457.25;4948646;28;20039;-64
2022/07/26 01:35:45;;;;;;;7.78;1.90;;;;;;;20.17;75.69;101467.66;4925835;29;20467;-63
2022/07/26 01:38:11;;;;;;;12.40;1.90;;;;;;;19.98;76.79;101457.28;4923924;29;20056;-64
2022/07/26 01:40:36;;;;;;;7.00;1.80;;;;;;;19.94;77.01;101464.66;4926682;29;20027;-64
2022/07/26 01:43:02;;;;;;;6.30;1.70;;;;;;;19.86;77.42;101464.28;4925245;29;20390;-63
2022/07/26 01:45:27;;;;;;;8.07;2.20;;;;;;;19.87;77.45;101460.63;4926470;29;20035;-64
2022/07/26 01:47:53;;;;;;;7.10;2.05;;;;;;;19.82;77.72;101465.44;4909949;29;20043;-63
2022/07/26 01:50:19;;;;;;;6.13;1.70;;;;;;;19.78;78.39;101466.59;4904209;29;20115;-64
2022/07/26 01:52:44;;;;;;;6.95;1.90;;;;;;;19.77;78.04;101465.72;4908908;29;20172;-64
2022/07/26 01:55:09;;;;;;;7.53;2.15;;;;;;;19.72;78.45;101462.50;4910311;29;20036;-64
2022/07/26 01:57:34;;;;;;;7.45;1.95;;;;;;;19.67;78.88;101465.44;4925699;29;20688;-63
2022/07/26 02:00:00;;;;;;;7.80;2.17;;;;;;;19.60;79.15;101468.59;4932503;29;20043;-63
2022/07/26 02:02:26;;;;;;;10.05;2.10;;;;;;;19.59;79.13;101457.03;4932096;29;20059;-64
2022/07/26 02:04:57;;;;;;;5.38;1.85;;;;;;;19.52;79.24;101464.59;4923079;29;20055;-62
2022/07/26 02:07:23;;;;;;;6.90;1.90;;;;;;;19.43;79.76;101463.34;4909341;29;20029;-64
2022/07/26 02:09:49;;;;;;;2.65;1.60;;;;;;;19.40;79.88;101468.88;4910885;29;20036;-63
2022/07/26 02:12:15;;;;;;;7.35;2.10;;;;;;;19.39;80.13;101472.50;4910349;29;20025;-63
2022/07/26 02:14:40;;;;;;;10.02;1.98;;;;;;;19.32;80.61;101472.03;4920316;29;20020;-64
2022/07/26 02:17:06;;;;;;;7.25;1.88;;;;;;;19.28;80.84;101470.50;4910909;29;20739;-63
2022/07/26 02:19:31;;;;;;;11.57;2.15;;;;;;;19.22;81.08;101470.88;4907001;29;20024;-63
2022/07/26 02:21:57;;;;;;;8.30;2.60;;;;;;;19.24;81.18;101474.31;4910123;29;20032;-63
2022/07/26 02:24:23;;;;;;;7.10;2.00;;;;;;;19.26;81.09;101471.56;4909992;29;20099;-64
2022/07/26 02:26:48;;;;;;;13.60;2.20;;;;;;;19.32;80.93;101472.03;4910570;29;20395;-62
2022/07/26 02:29:14;;;;;;;14.00;2.20;;;;;;;19.31;81.22;101464.09;4919956;29;20036;-63
2022/07/26 02:31:39;;;;;;;6.88;1.98;;;;;;;19.24;81.35;101474.31;4910048;29;20032;-64
2022/07/26 02:34:04;;;;;;;11.27;2.05;;;;;;;19.21;81.44;101477.16;4908771;29;20548;-63
2022/07/26 02:36:30;;;;;;;14.40;3.20;;;;;;;19.07;81.96;101477.97;4909565;29;20471;-63
2022/07/26 02:38:55;;;;;;;7.22;2.08;;;;;;;19.04;82.43;101478.13;4909402;29;20043;-63
2022/07/26 02:41:20;;;;;;;7.65;2.08;;;;;;;18.94;82.58;101476.00;4911357;29;20157;-63
2022/07/26 02:43:46;;;;;;;7.88;2.17;;;;;;;18.88;83.04;101472.84;4917595;29;20043;-64
2022/07/26 02:46:11;;;;;;;10.93;2.58;;;;;;;18.76;83.75;101483.31;4907885;29;20029;-64
2022/07/26 02:48:36;;;;;;;10.95;2.42;;;;;;;18.78;83.91;101478.72;4916348;29;20028;-63
2022/07/26 02:51:02;;;;;;;6.40;1.83;;;;;;;18.76;83.92;101482.44;4909588;29;20493;-63
2022/07/26 02:53:27;;;;;;;6.90;2.05;;;;;;;18.76;84.18;101482.44;4919293;29;20569;-63
2022/07/26 02:55:53;;;;;;;7.80;1.73;;;;;;;18.77;83.69;101481.50;4908400;29;20139;-64
2022/07/26 02:58:20;;;;;;;9.35;1.88;;;;;;;18.79;83.89;101484.94;4908711;29;20143;-63
2022/07/26 03:00:46;;;;;;;9.80;2.38;;;;;;;18.76;84.21;101486.00;4909858;29;20032;-64
2022/07/26 03:03:12;;;;;;;6.18;2.00;;;;;;;18.71;84.52;101487.19;4917154;29;20060;-64
2022/07/26 03:05:38;;;;;;;10.82;1.95;;;;;;;18.68;84.36;101483.75;4945537;29;20039;-64
2022/07/26 03:08:04;;;;;;;5.72;1.90;;;;;;;18.68;84.63;101488.22;4929751;29;20019;-64
2022/07/26 03:10:29;;;;;;;8.63;2.22;;;;;;;18.61;84.81;101495.75;4946876;29;20653;-64
2022/07/26 03:12:55;;;;;;;4.38;1.90;;;;;;;18.61;85.27;101497.53;4947681;29;20050;-64
2022/07/26 03:15:20;;;;;;;7.00;1.85;;;;;;;18.59;85.28;101496.75;4948161;28;20118;-64
2022/07/26 03:17:45;;;;;;;6.80;1.60;;;;;;;18.55;85.24;101504.09;4954788;28;20074;-64
2022/07/26 03:20:11;;;;;;;9.18;1.92;;;;;;;18.55;85.50;101504.09;4945947;29;20030;-64
2022/07/26 03:22:36;;;;;;;11.05;2.00;;;;;;;18.55;85.51;101509.44;4937645;28;20023;-64
2022/07/26 03:25:02;;;;;;;7.38;1.80;;;;;;;18.50;85.71;101506.16;4947863;28;20102;-64
2022/07/26 03:27:28;;;;;;;11.00;2.30;;;;;;;18.47;85.52;101501.88;4928607;29;20046;-64
2022/07/26 03:29:53;;;;;;;7.28;1.60;;;;;;;18.41;85.46;101505.75;4947397;29;20110;-64
2022/07/26 03:32:18;;;;;;;6.15;1.85;;;;;;;18.34;85.86;101507.03;4947024;29;20074;-64
2022/07/26 03:34:44;;;;;;;3.88;1.88;;;;;;;18.33;85.92;101515.13;4946564;29;20027;-64
2022/07/26 03:37:09;;;;;;;7.68;1.70;;;;;;;18.28;86.03;101524.25;4937647;28;20742;-63
2022/07/26 03:39:36;;;;;;;6.43;1.98;;;;;;;18.18;86.15;101521.22;4947136;29;20027;-63
2022/07/26 03:42:02;;;;;;;5.35;1.90;;;;;;;18.19;86.31;101525.59;4929067;29;20122;-63
2022/07/26 03:44:27;;;;;;;6.05;1.77;;;;;;;18.16;87.00;101531.13;4946289;29;20114;-64
2022/07/26 03:46:53;;;;;;;6.47;1.67;;;;;;;18.16;87.28;101525.81;4929812;29;20070;-63
2022/07/26 03:49:18;;;;;;;4.70;1.70;;;;;;;18.24;86.82;101532.50;4945504;28;20051;-63
2022/07/26 03:51:44;;;;;;;5.60;1.83;;;;;;;18.25;86.87;101531.56;4954418;28;20100;-63
2022/07/26 03:54:09;;;;;;;7.18;2.08;;;;;;;18.25;86.44;101529.75;4945961;29;20039;-63
2022/07/26 03:56:35;;;;;;;8.00;1.95;;;;;;;18.18;86.88;101518.56;4945582;29;20389;-63
2022/07/26 03:59:03;;;;;;;11.77;1.90;;;;;;;18.23;86.71;101522.78;4929822;29;20019;-62
2022/07/26 04:01:28;;;;;;;5.60;1.90;;;;;;;18.26;86.83;101518.13;4929259;29;20027;-63
2022/07/26 04:03:54;;;;;;;3.95;1.80;;;;;;;18.34;86.74;101517.72;4949164;28;20066;-63
2022/07/26 04:06:19;;;;;;;5.82;1.67;;;;;;;18.35;86.59;101522.09;4950334;28;20390;-63
2022/07/26 04:08:45;;;;;;;5.53;1.85;;;;;;;18.36;86.65;101530.97;4945146;29;20445;-63
2022/07/26 04:11:10;;;;;;;4.15;1.65;;;;;;;18.40;86.18;101522.72;4945218;29;20043;-63
2022/07/26 04:13:36;;;;;;;5.22;1.60;;;;;;;18.39;85.85;101531.63;4928494;29;20771;-63
2022/07/26 04:16:02;;;;;;;7.18;2.35;;;;;;;18.36;86.19;101526.47;4928526;29;20071;-62
2022/07/26 04:18:27;;;;;;;4.78;1.77;;;;;;;18.37;86.32;101522.88;4933820;28;20019;-65
2022/07/26 04:20:53;;;;;;;5.20;1.80;;;;;;;18.37;86.02;101527.34;4948475;28;20034;-64
2022/07/26 04:23:18;;;;;;;6.80;2.00;;;;;;;18.41;85.79;101540.44;4927963;29;20027;-64
2022/07/26 04:25:43;;;;;;;4.55;1.70;;;;;;;18.43;86.16;101533.19;4949498;28;20457;-64
2022/07/26 04:28:09;;;;;;;9.00;2.30;;;;;;;18.49;85.58;101536.47;4930232;28;20478;-65
2022/07/26 04:30:35;;;;;;;8.75;2.10;;;;;;;18.56;85.52;101532.50;4929077;29;20062;-64
2022/07/26 04:33:00;;;;;;;4.78;2.00;;;;;;;18.67;85.06;101535.41;4943621;28;20686;-65
2022/07/26 04:35:25;;;;;;;6.88;1.52;;;;;;;18.75;85.04;101532.31;4946035;28;20395;-65
2022/07/26 04:37:51;;;;;;;11.48;1.65;;;;;;;18.77;84.73;101533.09;4928467;28;20050;-62
2022/07/26 04:40:18;;;;;;;7.40;1.98;;;;;;;18.86;84.51;101534.34;4928111;29;20095;-64
2022/07/26 04:42:44;;;;;;;6.10;1.70;;;;;;;18.96;84.02;101531.16;4945372;28;20098;-64
2022/07/26 04:45:11;;;;;;;4.20;1.67;;;;;;;19.06;83.58;101538.50;4944780;28;20171;-64
2022/07/26 04:47:39;;;;;;;2.88;1.35;;;;;;;19.11;83.32;101538.28;4945952;28;20035;-64
2022/07/26 04:50:05;;;;;;;7.50;2.20;;;;;;;19.14;83.48;101542.59;4928495;28;20493;-64
2022/07/26 04:52:30;;;;;;;5.43;1.92;;;;;;;19.18;83.11;101544.13;4945538;28;20039;-64
2022/07/26 04:54:56;;;;;;;2.92;1.40;;;;;;;19.27;82.72;101550.72;4928280;28;20027;-63
2022/07/26 04:57:21;;;;;;;6.03;1.98;;;;;;;19.28;82.62;101549.78;4945502;28;20073;-64
2022/07/26 04:59:46;;;;;;;10.40;2.28;;;;;;;19.34;82.68;101554.75;4946036;29;20039;-64
2022/07/26 05:02:13;;;;;;;6.63;1.85;;;;;;;19.19;83.82;101560.06;4953128;28;20111;-64
2022/07/26 05:04:40;;;;;;;4.90;1.67;;;;;;;19.10;84.38;101557.94;4944830;29;20125;-64
2022/07/26 05:07:05;;;;;;;8.27;1.88;;;;;;;18.77;86.71;101561.56;4944877;29;20028;-64
2022/07/26 05:09:31;;;;;;;9.27;2.40;;;;;;;18.61;88.23;101573.16;4945991;29;20501;-64
2022/07/26 05:11:56;;;;;;;8.88;1.70;;;;;;;18.40;89.44;101576.06;4928601;29;20691;-64
2022/07/26 05:14:21;;;;;;;7.70;2.10;;;;;;;18.45;89.62;101578.47;4945338;29;20054;-64
2022/07/26 05:16:47;;;;;;;6.60;1.73;;;;;;;18.42;90.05;101584.84;4953632;28;20023;-63
2022/07/26 05:19:13;;;;;;;6.40;1.70;;;;;;;18.49;89.59;101596.03;4944418;29;20159;-64
2022/07/26 05:21:38;;;;;;;6.57;1.58;;;;;;;18.58;89.20;101593.78;4951139;28;20134;-64
2022/07/26 05:24:04;;;;;;;6.28;1.67;;;;;;;18.39;90.26;101601.00;4947684;28;20023;-63
2022/07/26 05:26:29;;;;;;;6.90;1.70;;;;;;;18.44;89.45;101609.63;4945290;28;20509;-63
2022/07/26 05:28:55;;;;;;;7.32;2.10;;;;;;;18.35;89.72;101615.47;4949419;29;20466;-63
2022/07/26 05:31:20;;;;;;;4.70;1.52;;;;;;;18.41;89.29;101614.25;4948956;29;20054;-63
2022/07/26 05:33:45;;;;;;;6.72;1.90;;;;;;;18.37;89.81;101618.06;4948836;29;20558;-63
2022/07/26 05:36:11;;;;;;;3.67;1.40;;;;;;;18.37;90.24;101618.94;4952178;28;20054;-63
2022/07/26 05:38:37;;;;;;;7.57;1.60;;;;;;;18.47;89.57;101624.59;4955186;28;20020;-63
2022/07/26 05:41:02;;;;;;;3.60;1.50;;;;;;;18.58;89.76;101626.69;4931499;29;20622;-63
2022/07/26 05:43:27;;;;;;;8.80;1.85;;;;;;;18.63;89.03;101613.94;4947926;29;20034;-63
2022/07/26 05:45:53;;;;;;;6.25;1.50;;;;;;;18.72;89.19;101623.22;4953129;28;20059;-64
2022/07/26 05:48:18;;;;;;;6.85;2.05;;;;;;;18.71;89.44;101621.53;4933164;28;20024;-64
2022/07/26 05:50:43;;;;;;;3.58;1.40;;;;;;;18.73;88.88;101624.09;4948302;29;20363;-64
2022/07/26 05:53:09;;;;;;;3.28;1.23;;;;;;;18.86;88.75;101630.47;4947016;29;20683;-65
2022/07/26 05:55:34;;;;;;;5.32;1.60;;;;;;;19.01;88.35;101634.09;4948605;28;20537;-66
2022/07/26 05:57:59;;;;;;;8.98;1.70;;;;;;;19.15;87.44;101641.31;4948441;29;20047;-64
2022/07/26 06:00:25;;;;;;;5.28;1.55;;;;;;;19.27;87.19;101637.06;4948067;29;20051;-63
2022/07/26 06:02:50;;;;;;;6.20;1.52;;;;;;;19.35;86.45;101641.13;4942370;29;20087;-63
2022/07/26 06:05:16;;;;;;;9.30;1.55;;;;;;;19.30;85.84;101649.41;4935723;28;20834;-64
2022/07/26 06:07:41;;;;;;;7.10;1.73;;;;;;;19.23;86.18;101654.22;4948168;28;20074;-63
2022/07/26 06:10:07;;;;;;;7.97;1.75;;;;;;;19.15;84.79;101652.00;4950204;28;20058;-63
2022/07/26 06:12:32;;;;;;;6.40;1.50;;;;;;;19.10;86.82;101658.56;4950131;28;20026;-63
2022/07/26 06:14:58;;;;;;;5.43;1.50;;;;;;;19.17;86.46;101666.13;4967388;28;20026;-63
2022/07/26 06:17:23;;;;;;;8.00;1.58;;;;;;;19.14;85.82;101665.47;4965701;28;20049;-63
2022/07/26 06:19:48;;;;;;;3.40;1.10;;;;;;;19.19;86.08;101672.25;4956094;28;20394;-63
2022/07/26 06:22:14;;;;;;;5.78;1.55;;;;;;;19.27;85.76;101673.63;4936438;29;20445;-63
2022/07/26 06:24:39;;;;;;;7.40;1.52;;;;;;;19.38;85.12;101676.53;4927439;29;20027;-62
2022/07/26 06:27:05;;;;;;;8.90;1.55;;;;;;;19.43;85.54;101671.78;4955296;28;20114;-63
2022/07/26 06:29:30;;;;;;;8.45;1.65;;;;;;;19.62;84.35;101673.38;4947573;29;20037;-66
2022/07/26 06:31:55;;;;;;;8.02;1.48;;;;;;;19.69;83.58;101682.75;4930098;29;20537;-62
2022/07/26 06:34:21;;;;;;;6.05;1.30;;;;;;;19.60;83.62;101691.31;4947324;29;20031;-64
2022/07/26 06:36:46;;;;;;;5.97;1.20;;;;;;;19.52;84.06;101690.91;4930397;29;20020;-63
2022/07/26 06:39:12;;;;;;;2.72;1.00;;;;;;;19.52;84.30;101691.78;4947060;28;20046;-63
2022/07/26 06:41:37;;;;;;;6.72;1.55;;;;;;;19.42;84.67;101704.78;4956160;28;20031;-63
2022/07/26 06:44:03;;;;;;;9.38;1.63;;;;;;;19.40;85.34;101704.03;4948046;29;20103;-62
2022/07/26 06:46:28;;;;;;;4.35;1.60;;;;;;;19.48;84.41;101705.41;4946424;29;20055;-62
2022/07/26 06:48:54;;;;;;;7.97;1.35;;;;;;;19.66;84.48;101709.66;4946322;29;20035;-62
2022/07/26 06:51:19;;;;;;;13.27;1.75;;;;;;;19.72;84.02;101707.59;4947872;28;20042;-61
2022/07/26 06:53:45;;;;;;;4.57;1.23;;;;;;;19.63;83.04;101706.31;4954897;28;20031;-63
2022/07/26 06:56:13;;;;;;;8.10;1.70;;;;;;;19.62;82.21;101708.13;4946600;29;20114;-61
2022/07/26 06:58:39;;;;;;;4.63;1.60;;;;;;;19.74;81.95;101701.19;4946366;29;20541;-63
2022/07/26 07:01:05;;;;;;;7.65;1.40;;;;;;;19.86;81.12;101706.78;4947739;29;20023;-64
2022/07/26 07:03:30;;;;;;;7.55;1.50;;;;;;;19.73;81.03;101714.63;4928570;29;20023;-64
2022/07/26 07:05:55;;;;;;;6.82;1.45;;;;;;;19.81;80.14;101717.75;4947343;29;20090;-63
2022/07/26 07:08:23;;;;;;;8.63;1.10;;;;;;;19.68;79.56;101715.78;4952347;28;20114;-63
2022/07/26 07:10:48;;;;;;;8.80;1.30;;;;;;;19.67;79.43;101727.44;4947582;28;20027;-64
2022/07/26 07:13:14;;;;;;;6.53;1.30;;;;;;;19.62;79.53;101732.16;4946425;29;20651;-64
2022/07/26 07:15:39;;;;;;;7.15;1.58;;;;;;;19.91;79.21;101724.25;4946725;28;20026;-64
2022/07/26 07:18:04;;;;;;;14.63;1.70;;;;;;;19.88;79.12;101724.44;4946676;29;20023;-64
2022/07/26 07:20:30;;;;;;;9.18;1.70;;;;;;;20.04;79.58;101724.41;4946263;29;20017;-64
2022/07/26 07:22:55;;;;;;;4.00;1.05;;;;;;;20.36;77.13;101723.41;4946661;29;20042;-64
2022/07/26 07:25:20;;;;;;;8.48;1.58;;;;;;;20.42;76.55;101719.47;4929130;29;20098;-63
2022/07/26 07:27:46;;;;;;;5.95;1.30;;;;;;;20.51;74.39;101729.63;4946404;29;20027;-63
2022/07/26 07:30:12;;;;;;;7.97;1.38;;;;;;;20.62;73.76;101728.94;4946516;29;20027;-63
2022/07/26 07:32:37;;;;;;;5.18;1.40;;;;;;;20.86;74.12;101732.84;4928867;29;20078;-64
2022/07/26 07:35:03;;;;;;;7.13;1.45;;;;;;;20.68;74.59;101739.25;4913984;29;20078;-64
2022/07/26 07:37:29;;;;;;;6.57;1.10;;;;;;;20.56;74.54;101745.41;4928606;29;20099;-65
2022/07/26 07:39:54;;;;;;;4.25;1.23;;;;;;;20.00;76.79;101754.06;4946162;29;20558;-65
2022/07/26 07:42:19;;;;;;;6.88;1.15;;;;;;;20.02;77.82;101755.72;4928701;29;20039;-65
2022/07/26 07:44:45;;;;;;;5.22;1.15;;;;;;;20.17;78.02;101750.44;4946060;29;20020;-64
2022/07/26 07:47:10;;;;;;;6.03;1.30;;;;;;;20.26;75.75;101747.16;4945590;29;20028;-65
2022/07/26 07:49:36;;;;;;;6.32;1.30;;;;;;;20.16;76.19;101748.69;4946978;28;20058;-65
2022/07/26 07:52:01;;;;;;;8.75;1.95;;;;;;;20.17;76.99;101755.78;4946087;29;20031;-67
2022/07/26 07:54:28;;;;;;;5.18;1.25;;;;;;;19.97;77.63;101748.91;4928948;29;20134;-65
2022/07/26 07:56:55;;;;;;;4.32;1.40;;;;;;;20.38;77.79;101758.94;4946745;29;20098;-65
2022/07/26 07:59:21;;;;;;;5.28;1.40;;;;;;;20.37;77.40;101764.38;4946716;29;20663;-64
2022/07/26 08:01:46;;;;;;;5.05;1.52;;;;;;;20.15;78.30;101763.03;4937270;28;20555;-64
2022/07/26 08:04:12;;;;;;;6.45;1.88;;;;;;;20.63;77.54;101760.13;4945217;28;20047;-65
2022/07/26 08:06:37;;;;;;;9.98;1.90;;;;;;;20.99;73.87;101771.31;4945511;29;20075;-66
2022/07/26 08:09:03;;;;;;;5.30;1.38;;;;;;;20.88;71.67;101766.59;4947073;29;20019;-66
2022/07/26 08:11:28;;;;;;;9.63;1.80;;;;;;;21.08;71.54;101770.72;4928649;29;20078;-63
2022/07/26 08:13:54;;;;;;;7.75;1.70;;;;;;;21.12;69.86;101768.72;4946487;29;20497;-65
2022/07/26 08:16:19;;;;;;;4.78;1.40;;;;;;;21.11;69.89;101767.00;4944634;28;20062;-65
2022/07/26 08:18:44;;;;;;;5.82;1.55;;;;;;;21.05;70.53;101770.94;4947348;28;20037;-67
2022/07/26 08:21:10;;;;;;;5.60;1.27;;;;;;;20.65;70.19;101766.22;4928311;29;20031;-63
2022/07/26 08:23:35;;;;;;;3.58;1.20;;;;;;;20.78;71.44;101776.19;4945994;29;20118;-61
2022/07/26 08:26:00;;;;;;;5.28;1.33;;;;;;;21.37;69.43;101769.78;4945989;29;20074;-63
2022/07/26 08:28:26;;;;;;;2.30;1.17;;;;;;;21.51;69.02;101768.03;4927048;29;20051;-63
2022/07/26 08:30:52;;;;;;;3.85;1.55;;;;;;;21.89;68.42;101783.44;4946142;29;20070;-63
2022/07/26 08:33:17;;;;;;;5.30;1.40;;;;;;;21.56;67.79;101787.34;4947289;28;20385;-63
2022/07/26 08:35:42;;;;;;;8.20;1.50;;;;;;;22.17;66.08;101780.66;4947632;28;20090;-63
2022/07/26 08:38:08;;;;;;;3.05;1.20;;;;;;;21.97;63.64;101788.25;4944049;29;20034;-64
2022/07/26 08:40:33;;;;;;;3.65;0.95;;;;;;;22.31;62.68;101788.63;4944727;29;20106;-62
2022/07/26 08:42:58;;;;;;;3.40;0.70;;;;;;;22.31;61.57;101799.34;4945933;29;20106;-62
2022/07/26 08:45:29;;;;;;;4.90;1.00;;;;;;;22.37;61.02;101799.91;4945370;29;20470;-63
2022/07/26 08:47:55;;;;;;;3.10;0.77;;;;;;;21.93;62.37;101806.41;4927862;29;20027;-64
2022/07/26 08:50:21;;;;;;;4.35;0.85;;;;;;;21.74;62.69;101808.56;4930236;28;20019;-64
2022/07/26 08:52:46;;;;;;;5.22;1.17;;;;;;;21.79;63.14;101806.47;4945619;28;20250;-64
2022/07/26 08:55:18;;;;;;;8.20;1.10;;;;;;;21.67;63.28;101818.84;4945100;29;20066;-63
2022/07/26 08:57:44;;;;;;;2.88;0.85;;;;;;;21.97;62.68;101812.41;4927825;29;20027;-63
2022/07/26 09:00:14;;;;;;;5.82;0.88;;;;;;;21.92;63.57;101810.06;4927700;28;20034;-63
2022/07/26 09:02:40;;;;;;;2.80;0.90;;;;;;;22.07;62.17;101818.88;4943621;29;20077;-64
2022/07/26 09:05:06;;;;;;;4.07;1.20;;;;;;;21.86;63.10;101815.81;4944471;29;20051;-63
2022/07/26 09:07:32;;;;;;;5.07;1.10;;;;;;;21.69;63.77;101820.44;4944456;28;20026;-63
2022/07/26 09:10:00;;;;;;;2.30;1.00;;;;;;;21.70;62.63;101823.97;4927099;29;20031;-63
2022/07/26 09:12:27;;;;;;;4.03;0.93;;;;;;;21.54;62.08;101822.31;4943897;29;20123;-63
2022/07/26 09:14:53;;;;;;;5.45;1.33;;;;;;;21.50;61.73;101827.97;4911583;29;20046;-63
2022/07/26 09:17:20;;;;;;;9.18;1.40;;;;;;;21.79;61.09;101825.25;4926010;29;20567;-63
2022/07/26 09:20:03;;;;;;;3.90;1.05;;;;;;;21.61;61.67;101832.66;4911144;29;20023;-63
2022/07/26 09:22:29;;;;;;;4.93;1.08;;;;;;;21.78;60.79;101831.56;4911020;28;20047;-61
2022/07/26 09:24:54;;;;;;;2.13;1.10;;;;;;;21.91;61.15;101835.13;4927017;29;20521;-63
2022/07/26 09:27:19;;;;;;;2.35;0.75;;;;;;;21.82;61.73;101846.47;4926875;29;20023;-63
2022/07/26 09:29:46;;;;;;;5.53;1.55;;;;;;;21.83;61.72;101848.22;4944283;29;20019;-63
2022/07/26 09:32:23;;;;;;;5.47;1.15;;;;;;;21.76;62.61;101846.91;4943475;29;20039;-63
2022/07/26 09:34:51;;;;;;;7.55;1.58;;;;;;;21.83;64.64;101864.31;4944865;29;20395;-63
2022/07/26 09:37:17;;;;;;;8.52;1.30;;;;;;;21.96;64.68;101864.34;4944767;29;20019;-69
2022/07/26 09:39:57;;;;;;;3.22;1.08;;;;;;;22.04;63.98;101864.72;4927635;29;20016;-62
2022/07/26 09:42:24;;;;;;;5.40;1.20;;;;;;;22.06;63.97;101876.19;4943620;29;20032;-64
2022/07/26 09:44:49;;;;;;;5.15;1.05;;;;;;;22.09;63.23;101867.06;4927550;29;20062;-64
2022/07/26 09:47:15;;;;;;;5.20;1.30;;;;;;;22.43;61.58;101872.81;4943528;29;20023;-63
2022/07/26 09:49:41;;;;;;;4.82;1.17;;;;;;;22.40;61.98;101865.00;4937876;29;20030;-63
2022/07/26 09:52:20;;;;;;;4.57;1.20;;;;;;;22.46;60.82;101878.00;4925836;28;20046;-63
2022/07/26 09:54:48;;;;;;;8.50;1.17;;;;;;;22.50;59.32;101873.28;4941118;29;20027;-63
2022/07/26 09:57:18;;;;;;;14.53;1.40;;;;;;;22.47;60.74;101879.72;4941891;29;20035;-62
2022/07/26 09:59:45;;;;;;;5.50;1.13;;;;;;;22.62;59.80;101871.59;4918193;29;20299;-62
2022/07/26 10:02:12;;;;;;;6.72;1.13;;;;;;;22.90;60.11;101876.91;4950589;28;20062;-63
2022/07/26 10:04:38;;;;;;;3.13;1.30;;;;;;;23.18;59.07;101889.22;4945103;28;20166;-63
2022/07/26 10:07:04;;;;;;;7.20;1.55;;;;;;;22.94;58.78;101891.81;4936422;28;20027;-62
2022/07/26 10:09:40;;;;;;;4.20;1.40;;;;;;;22.94;58.56;101881.91;4945521;28;20023;-63
2022/07/26 10:12:07;;;;;;;3.92;1.17;;;;;;;22.97;58.28;101887.06;4931884;29;20136;-64
2022/07/26 10:14:33;;;;;;;5.03;1.67;;;;;;;22.73;59.39;101884.31;4930527;29;20111;-63
2022/07/26 10:17:19;;;;;;;4.13;1.00;;;;;;;22.28;60.74;101890.00;4929481;29;20460;-62
2022/07/26 10:19:44;;;;;;;6.75;1.20;;;;;;;22.05;61.10;101895.94;4929257;28;20536;-63
2022/07/26 10:23:01;;;;;;;7.70;1.38;;;;;;;22.13;60.50;101894.56;4947476;28;20100;-61
2022/07/26 10:25:26;;;;;;;5.03;1.40;;;;;;;22.08;60.08;101895.75;4835866;29;20171;-62
2022/07/26 10:27:56;;;;;;;6.15;1.45;;;;;;;22.31;59.27;101898.69;4924468;28;20122;-62
2022/07/26 10:30:23;;;;;;;5.50;1.52;;;;;;;22.45;59.43;101910.31;4930870;29;20023;-63
2022/07/26 10:33:06;;;;;;;7.95;1.20;;;;;;;22.46;60.77;101906.69;4922239;29;20027;-61
2022/07/26 10:35:43;;;;;;;3.45;1.00;;;;;;;22.49;58.64;101908.28;4952135;28;20164;-62
2022/07/26 10:38:11;;;;;;;5.70;1.20;;;;;;;22.61;57.63;101902.13;4943572;28;20031;-61
2022/07/26 10:40:38;;;;;;;4.43;1.10;;;;;;;22.44;59.93;101906.78;4945428;28;20042;-61
2022/07/26 10:43:09;;;;;;;4.80;1.38;;;;;;;22.71;57.49;101913.09;4948522;29;20036;-61
2022/07/26 10:45:36;;;;;;;6.80;1.20;;;;;;;23.05;57.05;101913.41;4939600;28;20030;-59
2022/07/26 10:48:17;;;;;;;3.45;1.02;;;;;;;22.77;57.40;101909.97;4948235;29;20033;-61
2022/07/26 10:50:53;;;;;;;2.20;1.08;;;;;;;22.92;56.13;101908.06;4945390;28;20125;-61
2022/07/26 10:53:26;;;;;;;5.78;1.30;;;;;;;22.63;57.32;101910.94;4947940;28;20488;-61
2022/07/26 10:55:56;;;;;;;3.88;1.42;;;;;;;22.76;56.85;101916.34;4942338;28;20023;-60
2022/07/26 10:58:23;;;;;;;3.30;0.95;;;;;;;23.10;56.17;101913.97;4946907;28;20031;-61
2022/07/26 11:01:02;;;;;;;1.92;0.73;;;;;;;22.93;54.63;101909.78;4947730;28;20030;-60
2022/07/26 11:03:38;;;;;;;3.22;0.93;;;;;;;23.20;54.50;101908.78;4946499;28;20032;-61
2022/07/26 11:06:26;;;;;;;4.90;1.10;;;;;;;22.83;55.59;101922.13;4914701;29;20031;-60
2022/07/26 11:08:51;;;;;;;6.80;1.55;;;;;;;22.65;54.75;101924.25;4926851;29;20033;-60
2022/07/26 11:11:31;;;;;;;5.20;1.27;;;;;;;22.90;55.27;101911.81;4947682;28;20106;-61
2022/07/26 11:14:04;;;;;;;7.18;1.52;;;;;;;23.03;53.79;101918.03;4930487;28;20042;-60
2022/07/26 11:16:42;;;;;;;2.78;0.93;;;;;;;22.92;53.22;101920.63;4947495;28;20058;-60
2022/07/26 11:19:26;;;;;;;6.28;1.30;;;;;;;23.05;53.22;101915.22;4930573;28;20019;-63
2022/07/26 11:21:57;;;;;;;5.40;0.90;;;;;;;23.48;53.05;101916.75;4941208;28;20178;-60